Tollhouse, CA

6:36 AM PST on February 28, 2015 (GMT -0800)
South Forty Ranch | Change Station
CLOSE
Current Station
Personal Weather Station
Location: Tollhouse, CA
Elevation: 2077 ft
Nearby Weather Stations

Elev 2077 ft 36.99 °N, 119.37 °W | Updated 5 minutes ago

Overcast
Overcast
43.3 °F
Feels Like 43 °F
N
0.0
Wind Variable Wind from ESE
Gusts 0.0 mph

Today
High -- | Low -- °F
--% Chance of Precip.
Yesterday
High -- | Low -- °F
Precip. -- in
6:30 AM 5:50 PM
Waxing Gibbous, 78% visible
Pressure 29.78 in
Visibility 10.0 miles
Clouds Overcast 4900 ft
Windchill 43 °F
Dew Point 42 °F
Humidity 96%
Rainfall 0.07 in
Snow Depth Not available.
UV 0 out of 12
Pollen 4.50 out of 12
Air Quality Not available.
Flu Activity Not available.
METAR KFAT 281353Z 12004KT 10SM OVC049 08/06 A2978 RMK AO2 SLP082 T00830056

More Conditions Fewer Conditions

Pressure 29.78 in
Visibility 10.0 miles
Clouds Overcast 4900 ft
Windchill 43 °F
Dew Point 42 °F
Humidity 96%
Rainfall 0.07 in
Snow Depth Not available.
UV 0 out of 12
Pollen 4.50 out of 12
Air Quality Not available.
Flu Activity Not available.
METAR KFAT 281353Z 12004KT 10SM OVC049 08/06 A2978 RMK AO2 SLP082 T00830056

More Conditions Fewer Conditions

10-Day Weather Forecast

Almanac

Astronomy

Feb. 28, 2015 Rise Set
Actual Time
Civil Twilight
Nautical Twilight
Astronomical Twilight
Moon
Length of Visible Light
Length of Day
Tomorrow will be .
, % of the Moon is Illuminated

Today's Extremes

State Highs State Lows

Community

WunderPhotos

Upload Photos

1,801,022 photos uploaded!

WunderBlogs® & News

Nearby

Air Quality

  Air Quality AQ Index Pollutant
Not available.

Snow Depth

Station Depth Elevation

Earthquake Activity

City Distance Mag. Time & Date
Minimum magnitude displayed is 2.5.

Coastal Water Temperatures

Place Temperature

Nearby Weather Stations